Time;durP1;ratioP1;P1;durP2;ratioP2;P2;SDS_P1;SDS_P2;PMS_P1;PMS_P2;Temp;Humidity;BMP_temperature;BMP_pressure;BME280_temperature;BME280_humidity;BME280_pressure;Samples;Min_cycle;Max_cycle;Signal;HPM_P1;HPM_P2
2023/04/28 00:00:03;;;;;;;25.13;12.52;;;7.20;99.90;;;;;;5043995;28;20048;-67
2023/04/28 00:02:29;;;;;;;26.40;13.77;;;7.20;99.90;;;;;;5045633;28;20052;-66
2023/04/28 00:04:54;;;;;;;27.65;13.63;;;7.20;99.90;;;;;;5045117;28;20045;-66
2023/04/28 00:07:20;;;;;;;24.13;12.40;;;7.20;99.90;;;;;;5043980;28;20047;-66
2023/04/28 00:09:45;;;;;;;25.55;13.48;;;7.10;99.90;;;;;;5044756;28;20041;-66
2023/04/28 00:12:11;;;;;;;29.20;12.80;;;7.10;99.90;;;;;;5046220;28;20047;-66
2023/04/28 00:14:37;;;;;;;24.15;13.38;;;7.10;99.90;;;;;;5047437;28;20041;-66
2023/04/28 00:17:02;;;;;;;26.58;12.98;;;7.10;99.90;;;;;;5045616;28;20033;-67
2023/04/28 00:19:28;;;;;;;24.80;13.65;;;7.10;99.90;;;;;;5043324;28;20091;-66
2023/04/28 00:21:54;;;;;;;27.05;14.07;;;7.10;99.90;;;;;;5044910;28;20036;-66
2023/04/28 00:24:19;;;;;;;25.65;12.85;;;7.00;99.90;;;;;;5045564;28;20045;-66
2023/04/28 00:26:45;;;;;;;26.20;13.77;;;7.00;99.90;;;;;;5044989;28;20068;-66
2023/04/28 00:29:10;;;;;;;29.73;15.07;;;7.00;99.90;;;;;;5046334;28;20041;-66
2023/04/28 00:31:36;;;;;;;27.00;14.18;;;6.90;99.90;;;;;;5048232;28;20040;-66
2023/04/28 00:34:01;;;;;;;28.70;14.25;;;6.90;99.90;;;;;;5045795;28;21251;-66
2023/04/28 00:36:30;;;;;;;30.00;14.02;;;6.90;99.90;;;;;;5047308;28;20048;-66
2023/04/28 00:38:56;;;;;;;25.65;13.52;;;6.80;99.90;;;;;;5043761;28;20047;-66
2023/04/28 00:41:22;;;;;;;28.73;15.40;;;6.80;99.90;;;;;;5046484;28;20045;-66
2023/04/28 00:43:49;;;;;;;29.95;14.07;;;6.90;99.90;;;;;;5044931;28;20652;-67
2023/04/28 00:46:22;;;;;;;30.75;14.82;;;6.80;99.90;;;;;;5045001;28;20043;-66
2023/04/28 00:48:48;;;;;;;26.40;14.50;;;6.80;99.90;;;;;;5045118;28;20047;-66
2023/04/28 00:51:14;;;;;;;30.13;14.52;;;6.80;99.90;;;;;;5043324;28;20141;-66
2023/04/28 00:53:40;;;;;;;25.20;13.00;;;6.80;99.90;;;;;;5043957;28;20247;-67
2023/04/28 00:56:06;;;;;;;28.55;13.27;;;6.80;99.90;;;;;;5039469;28;20377;-66
2023/04/28 00:58:33;;;;;;;24.35;14.40;;;6.80;99.90;;;;;;5042763;28;20044;-66
2023/04/28 01:01:06;;;;;;;29.80;14.40;;;6.80;99.90;;;;;;5042787;28;20071;-66
2023/04/28 01:03:38;;;;;;;26.75;14.30;;;6.70;99.90;;;;;;5043861;28;20102;-66
2023/04/28 01:06:05;;;;;;;31.48;14.85;;;6.70;99.90;;;;;;5039856;28;20056;-66
2023/04/28 01:08:31;;;;;;;24.30;14.10;;;6.70;99.90;;;;;;5044081;28;20038;-66
2023/04/28 01:10:57;;;;;;;27.27;13.65;;;6.60;99.90;;;;;;5042724;28;20032;-66
2023/04/28 01:13:23;;;;;;;28.90;13.77;;;6.50;99.90;;;;;;5040102;28;20488;-65
2023/04/28 01:15:49;;;;;;;26.15;13.85;;;6.50;99.90;;;;;;5040714;28;20036;-66
2023/04/28 01:18:15;;;;;;;31.58;14.73;;;6.40;99.90;;;;;;5039938;28;20064;-66
2023/04/28 01:20:41;;;;;;;29.27;14.75;;;6.40;99.90;;;;;;5039988;28;20078;-66
2023/04/28 01:23:16;;;;;;;24.48;13.73;;;6.40;99.90;;;;;;5043380;28;20449;-66
2023/04/28 01:25:42;;;;;;;28.83;14.48;;;6.40;99.90;;;;;;5038172;28;20040;-66
2023/04/28 01:28:09;;;;;;;29.50;14.48;;;6.40;99.90;;;;;;5040396;28;20040;-65
2023/04/28 01:30:35;;;;;;;30.23;13.93;;;6.40;99.90;;;;;;5038215;28;20570;-66
2023/04/28 01:33:01;;;;;;;32.75;14.90;;;6.40;99.90;;;;;;5043079;28;20082;-66
2023/04/28 01:35:27;;;;;;;27.00;13.55;;;6.40;99.90;;;;;;5039299;28;20098;-66
2023/04/28 01:37:53;;;;;;;29.42;14.32;;;6.40;99.90;;;;;;5040609;28;20530;-66
2023/04/28 01:40:18;;;;;;;29.42;14.30;;;6.40;99.90;;;;;;5039793;28;20037;-66
2023/04/28 01:42:44;;;;;;;26.75;13.95;;;6.40;99.90;;;;;;5039341;28;20040;-66
2023/04/28 01:45:10;;;;;;;25.42;13.82;;;6.40;99.90;;;;;;5040386;28;20590;-64
2023/04/28 01:47:35;;;;;;;29.90;13.45;;;6.40;99.90;;;;;;5042465;28;20059;-66
2023/04/28 01:50:01;;;;;;;28.08;14.15;;;6.40;99.90;;;;;;5041019;28;20110;-65
2023/04/28 01:52:26;;;;;;;26.73;14.13;;;6.40;99.90;;;;;;5039403;28;20033;-66
2023/04/28 01:54:52;;;;;;;27.92;13.82;;;6.40;99.90;;;;;;5057333;28;20099;-66
2023/04/28 01:57:18;;;;;;;27.55;14.65;;;6.40;99.90;;;;;;5041890;28;20090;-66
2023/04/28 01:59:44;;;;;;;31.95;13.80;;;6.40;99.90;;;;;;5040846;28;20492;-66
2023/04/28 02:02:10;;;;;;;28.67;13.20;;;6.40;99.90;;;;;;5042061;28;20061;-66
2023/04/28 02:04:39;;;;;;;26.30;14.30;;;6.40;99.90;;;;;;5039312;28;20059;-66
2023/04/28 02:07:06;;;;;;;28.60;14.68;;;6.40;99.90;;;;;;5041276;28;20118;-65
2023/04/28 02:09:32;;;;;;;27.85;13.55;;;6.40;99.90;;;;;;5041033;28;20178;-65
2023/04/28 02:12:01;;;;;;;24.08;13.18;;;6.40;99.90;;;;;;5043177;28;20056;-66
2023/04/28 02:14:27;;;;;;;27.27;13.75;;;6.40;99.90;;;;;;5037564;28;20041;-66
2023/04/28 02:16:53;;;;;;;28.23;13.13;;;6.30;99.90;;;;;;5040739;28;20046;-66
2023/04/28 02:19:18;;;;;;;27.02;13.88;;;6.30;99.90;;;;;;5041583;28;20032;-66
2023/04/28 02:21:44;;;;;;;25.80;13.60;;;6.30;99.90;;;;;;5042659;28;20071;-65
2023/04/28 02:24:09;;;;;;;27.92;13.45;;;6.30;99.90;;;;;;5040467;28;20036;-66
2023/04/28 02:26:35;;;;;;;25.25;13.18;;;6.30;99.90;;;;;;5037621;28;20055;-66
2023/04/28 02:29:03;;;;;;;29.02;14.10;;;6.30;99.90;;;;;;5042632;28;20499;-66
2023/04/28 02:31:28;;;;;;;26.60;13.63;;;6.30;99.90;;;;;;5042272;28;20033;-66
2023/04/28 02:33:54;;;;;;;27.38;13.65;;;6.30;99.90;;;;;;5046293;28;20047;-66
2023/04/28 02:36:20;;;;;;;23.60;13.32;;;6.20;99.90;;;;;;5042904;28;20041;-66
2023/04/28 02:38:46;;;;;;;27.08;13.88;;;6.20;99.90;;;;;;5046926;28;20098;-66
2023/04/28 02:41:13;;;;;;;24.55;12.35;;;6.20;99.90;;;;;;5045951;28;20120;-65
2023/04/28 02:43:40;;;;;;;27.48;14.38;;;6.20;99.90;;;;;;5044776;28;20040;-66
2023/04/28 02:46:05;;;;;;;26.63;13.35;;;6.20;99.90;;;;;;5044626;28;20110;-65
2023/04/28 02:48:34;;;;;;;28.33;13.85;;;6.20;99.90;;;;;;5045204;28;20048;-65
2023/04/28 02:50:59;;;;;;;28.85;14.07;;;6.20;99.90;;;;;;5042816;28;20071;-66
2023/04/28 02:53:25;;;;;;;30.33;13.88;;;6.20;99.90;;;;;;5043793;28;20045;-66
2023/04/28 02:55:51;;;;;;;28.92;13.93;;;6.30;99.90;;;;;;5046185;28;20033;-66
2023/04/28 02:58:16;;;;;;;27.98;14.23;;;6.20;99.90;;;;;;5044289;28;20037;-66
2023/04/28 03:00:42;;;;;;;27.92;14.05;;;6.20;99.90;;;;;;5044929;28;20072;-66
2023/04/28 03:03:08;;;;;;;25.15;13.63;;;6.30;99.90;;;;;;5041851;28;20119;-66
2023/04/28 03:05:33;;;;;;;26.80;13.57;;;6.30;99.90;;;;;;5045867;28;20041;-66
2023/04/28 03:07:59;;;;;;;28.90;14.18;;;6.30;99.90;;;;;;5044015;28;20045;-66
2023/04/28 03:10:25;;;;;;;30.63;14.30;;;6.30;99.90;;;;;;5042819;28;20080;-66
2023/04/28 03:12:50;;;;;;;26.80;13.85;;;6.20;99.90;;;;;;5041676;28;20338;-66
2023/04/28 03:15:16;;;;;;;28.83;13.77;;;6.30;99.90;;;;;;5043975;28;20543;-65
2023/04/28 03:17:42;;;;;;;29.50;14.13;;;6.30;99.90;;;;;;5041008;28;20120;-66
2023/04/28 03:20:08;;;;;;;28.33;13.68;;;6.30;99.90;;;;;;5045891;28;20033;-66
2023/04/28 03:22:34;;;;;;;27.10;14.27;;;6.30;99.90;;;;;;5041640;28;20036;-66
2023/04/28 03:25:00;;;;;;;27.65;14.02;;;6.30;99.90;;;;;;5044858;28;20584;-66
2023/04/28 03:27:26;;;;;;;30.83;14.35;;;6.30;99.90;;;;;;5043388;28;20492;-66
2023/04/28 03:29:52;;;;;;;26.88;14.18;;;6.30;99.90;;;;;;5044481;28;20052;-66
2023/04/28 03:32:17;;;;;;;27.48;14.20;;;6.30;99.90;;;;;;5024939;28;20037;-66
2023/04/28 03:34:43;;;;;;;31.85;14.60;;;6.20;99.90;;;;;;5043542;28;20056;-66
2023/04/28 03:37:08;;;;;;;29.60;14.75;;;6.20;99.90;;;;;;5043351;28;20388;-66
2023/04/28 03:39:34;;;;;;;31.70;14.73;;;6.20;99.90;;;;;;5043226;28;20040;-66
2023/04/28 03:42:00;;;;;;;29.58;14.48;;;6.20;99.90;;;;;;5041435;28;20033;-66
2023/04/28 03:44:25;;;;;;;31.58;15.00;;;6.20;99.90;;;;;;5044693;28;20121;-66
2023/04/28 03:46:51;;;;;;;27.42;14.63;;;6.20;99.90;;;;;;5043380;28;20033;-67
2023/04/28 03:49:16;;;;;;;33.92;14.85;;;6.20;99.90;;;;;;5041871;28;20032;-66
2023/04/28 03:51:42;;;;;;;32.10;15.23;;;6.20;99.90;;;;;;5043884;28;20044;-66
2023/04/28 03:54:08;;;;;;;29.73;14.77;;;6.20;99.90;;;;;;5057637;28;20523;-67
2023/04/28 03:56:33;;;;;;;30.63;14.50;;;6.20;99.90;;;;;;5041556;28;20045;-66
2023/04/28 03:58:59;;;;;;;31.27;14.82;;;6.10;99.90;;;;;;5040639;28;20044;-66
2023/04/28 04:01:25;;;;;;;33.25;15.77;;;6.10;99.90;;;;;;5042471;28;20525;-66
2023/04/28 04:03:50;;;;;;;32.35;14.73;;;6.10;99.90;;;;;;5041260;28;20088;-66
2023/04/28 04:06:16;;;;;;;34.10;15.38;;;6.20;99.90;;;;;;5041164;28;20116;-66
2023/04/28 04:08:42;;;;;;;30.70;15.40;;;6.10;99.90;;;;;;5040833;28;20454;-66
2023/04/28 04:11:08;;;;;;;31.40;15.45;;;6.20;99.90;;;;;;5042342;28;20595;-66
2023/04/28 04:13:33;;;;;;;33.72;15.15;;;6.20;99.90;;;;;;5044258;28;20094;-66
2023/04/28 04:15:59;;;;;;;29.05;14.77;;;6.20;99.90;;;;;;5042202;28;20037;-66
2023/04/28 04:18:25;;;;;;;28.33;14.25;;;6.20;99.90;;;;;;5058095;28;20036;-66
2023/04/28 04:20:52;;;;;;;28.65;14.70;;;6.20;99.90;;;;;;5043160;28;20366;-66
2023/04/28 04:23:18;;;;;;;32.10;15.05;;;6.20;99.90;;;;;;5044373;28;20077;-66
2023/04/28 04:25:44;;;;;;;35.45;15.55;;;6.20;99.90;;;;;;5047076;28;20440;-66
2023/04/28 04:28:09;;;;;;;30.08;14.55;;;6.20;99.90;;;;;;5046407;28;20039;-65
2023/04/28 04:30:35;;;;;;;34.78;15.55;;;6.30;99.90;;;;;;5046362;28;20072;-66
2023/04/28 04:33:01;;;;;;;32.00;15.68;;;6.30;99.90;;;;;;5043553;28;20044;-66
2023/04/28 04:35:26;;;;;;;31.08;15.82;;;6.30;99.90;;;;;;5046124;28;20525;-66
2023/04/28 04:37:52;;;;;;;34.08;16.38;;;6.30;99.90;;;;;;5046022;28;20060;-66
2023/04/28 04:40:17;;;;;;;28.33;15.05;;;6.30;99.90;;;;;;5043389;28;20491;-66
2023/04/28 04:42:43;;;;;;;28.33;14.98;;;6.30;99.90;;;;;;5045331;28;20041;-66
2023/04/28 04:45:09;;;;;;;31.65;15.07;;;6.30;99.90;;;;;;5046076;28;20044;-66
2023/04/28 04:47:34;;;;;;;30.48;14.65;;;6.40;99.90;;;;;;5044256;28;20068;-66
2023/04/28 04:50:00;;;;;;;31.52;15.60;;;6.40;99.90;;;;;;5044554;28;20178;-66
2023/04/28 04:52:25;;;;;;;29.88;15.30;;;6.40;99.90;;;;;;5043178;28;20037;-66
2023/04/28 04:54:51;;;;;;;32.50;15.35;;;6.50;99.90;;;;;;5044397;28;20503;-66
2023/04/28 04:57:17;;;;;;;30.95;15.13;;;6.50;99.90;;;;;;5043765;28;20068;-66
2023/04/28 04:59:42;;;;;;;31.88;15.30;;;6.50;99.90;;;;;;5045827;28;20380;-66
2023/04/28 05:02:08;;;;;;;31.50;15.93;;;6.60;99.90;;;;;;5045300;28;20591;-66
2023/04/28 05:04:33;;;;;;;32.58;15.05;;;6.60;99.90;;;;;;5044831;28;20044;-66
2023/04/28 05:06:59;;;;;;;32.05;15.45;;;6.70;99.90;;;;;;5042674;28;20037;-67
2023/04/28 05:09:24;;;;;;;32.78;15.10;;;6.70;99.90;;;;;;5042959;28;20033;-66
2023/04/28 05:11:50;;;;;;;31.80;15.45;;;6.70;99.90;;;;;;5044233;28;20048;-67
2023/04/28 05:14:16;;;;;;;34.50;15.55;;;6.70;99.90;;;;;;5046159;28;20373;-66
2023/04/28 05:16:41;;;;;;;28.95;15.05;;;6.70;99.90;;;;;;5041421;28;20048;-67
2023/04/28 05:19:07;;;;;;;30.60;15.07;;;6.80;99.90;;;;;;5044197;28;20033;-66
2023/04/28 05:21:33;;;;;;;34.58;16.15;;;6.70;99.90;;;;;;5044814;28;20072;-66
2023/04/28 05:23:58;;;;;;;31.27;14.30;;;6.70;99.90;;;;;;5043892;28;20523;-66
2023/04/28 05:26:24;;;;;;;30.90;15.43;;;6.80;99.90;;;;;;5043140;28;20068;-66
2023/04/28 05:28:50;;;;;;;29.92;15.10;;;6.80;99.90;;;;;;5043572;28;20102;-66
2023/04/28 05:31:16;;;;;;;35.10;15.15;;;6.80;99.90;;;;;;5044272;28;20167;-66
2023/04/28 05:33:41;;;;;;;31.70;15.55;;;6.80;99.90;;;;;;5044103;28;20090;-67
2023/04/28 05:36:08;;;;;;;29.83;14.50;;;6.80;99.90;;;;;;5043787;28;20045;-65
2023/04/28 05:38:34;;;;;;;26.83;14.55;;;6.90;99.90;;;;;;5044316;28;20116;-66
2023/04/28 05:41:01;;;;;;;30.50;14.70;;;6.90;99.90;;;;;;5042232;28;20025;-66
2023/04/28 05:43:26;;;;;;;35.03;14.73;;;7.00;99.90;;;;;;5045938;28;20032;-65
2023/04/28 05:45:52;;;;;;;30.95;15.48;;;7.00;99.90;;;;;;5045111;28;20051;-66
2023/04/28 05:48:18;;;;;;;29.83;14.60;;;7.00;99.90;;;;;;5043983;28;20059;-66
2023/04/28 05:50:43;;;;;;;31.42;15.70;;;7.00;99.90;;;;;;5044075;28;20098;-66
2023/04/28 05:53:09;;;;;;;29.98;15.35;;;7.10;99.90;;;;;;5044977;28;20478;-66
2023/04/28 05:55:35;;;;;;;33.63;15.68;;;7.10;99.90;;;;;;5058390;28;20048;-67
2023/04/28 05:58:04;;;;;;;30.88;15.15;;;7.10;99.90;;;;;;5043967;28;20621;-66
2023/04/28 06:00:30;;;;;;;30.27;14.43;;;7.10;99.90;;;;;;5040985;28;20040;-67
2023/04/28 06:02:55;;;;;;;30.48;15.27;;;7.10;99.90;;;;;;5043337;28;20128;-66
2023/04/28 06:05:21;;;;;;;27.85;14.60;;;7.20;99.90;;;;;;5044666;28;20045;-66
2023/04/28 06:07:47;;;;;;;30.30;15.20;;;7.20;99.90;;;;;;5044246;28;20095;-67
2023/04/28 06:10:13;;;;;;;30.85;15.07;;;7.20;99.90;;;;;;5042338;28;20045;-66
2023/04/28 06:12:38;;;;;;;30.55;15.43;;;7.20;99.90;;;;;;5039793;28;20045;-67
2023/04/28 06:15:05;;;;;;;33.20;14.93;;;7.20;99.90;;;;;;5042959;28;20044;-66
2023/04/28 06:17:32;;;;;;;32.10;14.88;;;7.30;99.90;;;;;;5041645;28;20159;-66
2023/04/28 06:19:58;;;;;;;29.88;14.38;;;7.30;99.90;;;;;;5043220;28;20064;-66
2023/04/28 06:22:24;;;;;;;30.20;14.85;;;7.30;99.90;;;;;;5042359;28;20063;-66
2023/04/28 06:24:50;;;;;;;29.35;14.88;;;7.30;99.90;;;;;;5043768;28;20040;-66
2023/04/28 06:27:15;;;;;;;34.47;15.00;;;7.40;99.90;;;;;;5043752;28;20111;-66
2023/04/28 06:29:41;;;;;;;36.25;15.02;;;7.40;99.90;;;;;;5041708;28;20048;-66
2023/04/28 06:32:06;;;;;;;28.42;14.52;;;7.50;99.90;;;;;;5042973;28;20044;-66
2023/04/28 06:34:33;;;;;;;24.48;14.20;;;7.50;99.90;;;;;;5042463;28;20058;-66
2023/04/28 06:36:59;;;;;;;31.08;14.55;;;7.50;99.90;;;;;;5041809;28;20369;-66
2023/04/28 06:39:24;;;;;;;29.67;14.88;;;7.60;99.90;;;;;;5042391;28;20094;-67
2023/04/28 06:41:50;;;;;;;27.90;14.82;;;7.60;99.90;;;;;;5042115;28;20053;-67
2023/04/28 06:44:16;;;;;;;30.33;14.70;;;7.70;99.90;;;;;;5042094;28;20475;-66
2023/04/28 06:46:41;;;;;;;29.13;13.95;;;7.80;99.90;;;;;;5040381;28;20389;-66
2023/04/28 06:49:07;;;;;;;27.88;14.07;;;7.90;99.90;;;;;;5041434;28;20136;-66
2023/04/28 06:51:33;;;;;;;29.85;15.15;;;8.00;99.90;;;;;;5041330;28;20187;-67
2023/04/28 06:53:59;;;;;;;26.02;13.90;;;8.10;99.90;;;;;;5043545;28;20464;-66
2023/04/28 06:56:25;;;;;;;30.48;15.23;;;8.20;99.90;;;;;;5053378;28;20035;-66
2023/04/28 06:58:51;;;;;;;27.75;14.63;;;8.30;99.90;;;;;;5043333;28;20033;-66
2023/04/28 07:01:17;;;;;;;27.40;14.43;;;8.30;99.90;;;;;;5051242;28;20127;-66
2023/04/28 07:03:42;;;;;;;34.67;15.45;;;8.40;99.90;;;;;;5056160;28;20195;-67
2023/04/28 07:06:08;;;;;;;30.75;14.07;;;8.40;99.90;;;;;;5030439;28;20041;-66
2023/04/28 07:08:35;;;;;;;33.40;15.50;;;8.40;99.90;;;;;;5046819;28;20049;-66
2023/04/28 07:11:05;;;;;;;31.70;14.68;;;8.50;99.90;;;;;;5051019;28;20036;-66
2023/04/28 07:13:31;;;;;;;32.13;15.32;;;8.50;99.90;;;;;;5048884;28;20091;-66
2023/04/28 07:15:57;;;;;;;30.10;14.60;;;8.60;99.90;;;;;;5045467;28;20499;-66
2023/04/28 07:18:22;;;;;;;28.02;14.98;;;8.70;99.90;;;;;;5049114;28;20061;-66
2023/04/28 07:20:48;;;;;;;27.95;14.82;;;8.80;99.90;;;;;;5051024;28;20025;-66
2023/04/28 07:23:14;;;;;;;30.48;15.05;;;8.90;99.90;;;;;;5051928;28;20029;-66
2023/04/28 07:25:40;;;;;;;31.05;15.15;;;9.00;99.90;;;;;;5051336;28;20045;-66
2023/04/28 07:28:06;;;;;;;30.30;14.80;;;9.20;99.90;;;;;;5062910;28;20048;-66
2023/04/28 07:30:32;;;;;;;27.08;14.13;;;9.40;99.90;;;;;;5048444;28;20043;-66
2023/04/28 07:32:59;;;;;;;29.17;15.18;;;9.50;99.90;;;;;;5046510;28;20401;-67
2023/04/28 07:35:24;;;;;;;29.13;14.70;;;9.70;99.90;;;;;;5046058;28;20157;-67
2023/04/28 07:37:50;;;;;;;29.15;14.80;;;9.70;99.90;;;;;;5046191;28;20082;-66
2023/04/28 07:40:17;;;;;;;28.23;14.85;;;9.80;99.90;;;;;;5046768;28;20053;-66
2023/04/28 07:42:43;;;;;;;28.75;15.10;;;9.80;99.90;;;;;;5047382;28;20486;-67
2023/04/28 07:45:09;;;;;;;28.35;14.63;;;9.70;99.90;;;;;;5048969;28;20056;-66
2023/04/28 07:47:35;;;;;;;29.73;15.05;;;9.70;99.90;;;;;;5045438;28;20312;-67
2023/04/28 07:50:03;;;;;;;31.02;15.02;;;9.70;99.90;;;;;;5047204;28;20480;-67
2023/04/28 07:52:30;;;;;;;30.52;14.18;;;9.70;99.90;;;;;;5045198;28;20049;-67
2023/04/28 07:54:56;;;;;;;29.77;14.93;;;9.70;99.90;;;;;;5046816;28;20049;-67
2023/04/28 07:57:21;;;;;;;29.25;14.98;;;9.80;99.90;;;;;;5047970;28;20566;-66
2023/04/28 07:59:47;;;;;;;30.30;14.85;;;9.90;99.90;;;;;;5045108;28;20075;-67
2023/04/28 08:02:13;;;;;;;29.27;14.20;;;9.90;99.90;;;;;;5045904;28;20029;-67
2023/04/28 08:04:39;;;;;;;31.20;14.70;;;9.90;99.90;;;;;;5047557;28;20507;-66
2023/04/28 08:07:05;;;;;;;29.55;15.15;;;10.00;99.90;;;;;;5047864;28;20032;-66
2023/04/28 08:09:30;;;;;;;28.05;14.73;;;10.00;99.90;;;;;;5047518;28;20045;-66
2023/04/28 08:11:57;;;;;;;26.83;14.35;;;10.00;99.90;;;;;;5056783;28;20131;-67
2023/04/28 08:14:23;;;;;;;32.75;15.27;;;10.00;99.90;;;;;;5056769;28;20751;-67
2023/04/28 08:16:49;;;;;;;31.45;16.27;;;10.10;99.90;;;;;;5045778;28;20586;-67
2023/04/28 08:19:14;;;;;;;31.88;15.90;;;10.20;99.90;;;;;;5046603;28;20119;-66
2023/04/28 08:21:40;;;;;;;31.98;14.80;;;10.20;99.90;;;;;;5054578;28;20102;-67
2023/04/28 08:24:07;;;;;;;31.25;15.00;;;10.30;99.90;;;;;;5051197;28;20072;-66
2023/04/28 08:26:32;;;;;;;29.02;14.80;;;10.30;99.90;;;;;;5049327;28;20091;-67
2023/04/28 08:28:58;;;;;;;25.45;14.68;;;10.50;99.90;;;;;;5050660;28;20088;-67
2023/04/28 08:31:23;;;;;;;28.48;14.85;;;10.50;99.90;;;;;;5062595;28;20037;-67
2023/04/28 08:33:50;;;;;;;31.00;15.18;;;10.60;99.90;;;;;;5056644;28;20037;-67
2023/04/28 08:36:16;;;;;;;29.77;15.48;;;10.80;99.90;;;;;;5056111;28;20444;-67
2023/04/28 08:38:43;;;;;;;28.17;15.95;;;10.90;99.90;;;;;;5057732;28;20048;-67
2023/04/28 08:41:09;;;;;;;28.20;15.75;;;11.10;99.90;;;;;;5052547;28;20028;-66
2023/04/28 08:43:35;;;;;;;27.35;15.15;;;11.30;99.90;;;;;;5056491;28;20049;-67
2023/04/28 08:46:05;;;;;;;29.35;15.68;;;11.50;99.90;;;;;;5050726;28;20052;-67
2023/04/28 08:48:38;;;;;;;30.10;15.10;;;11.70;99.90;;;;;;5050504;28;20032;-67
2023/04/28 08:51:05;;;;;;;32.30;16.65;;;11.90;99.90;;;;;;5050013;28;20443;-67
2023/04/28 08:53:36;;;;;;;29.15;15.52;;;12.10;99.90;;;;;;5055897;28;20072;-67
2023/04/28 08:56:05;;;;;;;30.33;16.17;;;12.20;99.90;;;;;;5062197;28;20033;-67
2023/04/28 08:58:31;;;;;;;26.67;15.43;;;12.30;99.90;;;;;;5049440;28;20040;-67
2023/04/28 09:00:56;;;;;;;27.95;15.93;;;12.30;99.90;;;;;;5049982;28;20033;-67
2023/04/28 09:03:22;;;;;;;30.25;16.40;;;12.30;99.90;;;;;;5047400;28;20126;-67
2023/04/28 09:05:48;;;;;;;27.88;16.15;;;12.30;99.90;;;;;;5050358;28;20043;-67
2023/04/28 09:08:13;;;;;;;29.77;15.90;;;12.40;99.90;;;;;;5065421;28;20373;-66
2023/04/28 09:10:39;;;;;;;31.77;16.73;;;12.50;99.90;;;;;;5054072;28;20049;-67
2023/04/28 09:13:06;;;;;;;30.23;16.55;;;12.60;99.90;;;;;;5056932;28;20460;-66
2023/04/28 09:15:34;;;;;;;25.50;15.80;;;12.80;99.90;;;;;;5050126;28;20124;-67
2023/04/28 09:18:05;;;;;;;29.75;15.98;;;12.90;99.90;;;;;;5054725;28;20029;-67
2023/04/28 09:20:32;;;;;;;28.30;16.98;;;13.10;99.90;;;;;;5049341;28;20073;-67
2023/04/28 09:23:18;;;;;;;28.52;16.00;;;13.20;99.90;;;;;;5051948;28;20048;-67
2023/04/28 09:26:02;;;;;;;27.25;15.75;;;13.40;99.90;;;;;;5061915;28;20119;-67
2023/04/28 09:28:28;;;;;;;32.92;16.17;;;13.50;99.90;;;;;;5056944;28;20508;-67
2023/04/28 09:30:54;;;;;;;28.48;15.88;;;13.60;99.90;;;;;;5049203;28;20045;-67
2023/04/28 09:33:20;;;;;;;28.48;16.55;;;13.70;99.90;;;;;;5050233;28;20048;-67
2023/04/28 09:35:47;;;;;;;28.42;15.98;;;13.70;99.90;;;;;;5071055;28;20530;-67
2023/04/28 09:38:13;;;;;;;25.17;16.10;;;13.90;99.90;;;;;;5057637;28;20045;-67
2023/04/28 09:40:54;;;;;;;30.88;15.40;;;13.90;99.90;;;;;;5044518;28;20045;-67
2023/04/28 09:43:31;;;;;;;28.92;15.55;;;14.00;99.90;;;;;;5048435;28;20040;-67
2023/04/28 09:45:58;;;;;;;26.65;15.38;;;14.10;99.90;;;;;;5031454;28;20037;-67
2023/04/28 09:48:32;;;;;;;28.05;15.18;;;14.30;99.90;;;;;;5042328;28;20102;-67
2023/04/28 09:50:59;;;;;;;24.75;15.68;;;14.50;99.90;;;;;;5047394;28;20147;-67
2023/04/28 09:53:26;;;;;;;28.88;15.73;;;14.80;99.90;;;;;;5041894;28;20048;-67
2023/04/28 09:55:53;;;;;;;27.73;15.88;;;14.90;99.90;;;;;;5042344;28;20086;-67
2023/04/28 09:58:20;;;;;;;24.35;15.27;;;15.10;99.90;;;;;;5037361;28;20045;-67
2023/04/28 10:00:53;;;;;;;31.25;15.88;;;15.30;99.90;;;;;;5039323;28;20430;-67
2023/04/28 10:03:26;;;;;;;26.17;16.15;;;15.40;99.90;;;;;;5039067;28;20388;-67
2023/04/28 10:05:53;;;;;;;30.02;15.70;;;15.70;99.90;;;;;;5043409;28;20503;-67
2023/04/28 10:08:20;;;;;;;30.75;16.23;;;15.90;99.90;;;;;;5042872;28;20399;-67
2023/04/28 10:10:49;;;;;;;26.48;16.05;;;16.10;99.90;;;;;;5047354;28;20040;-67
2023/04/28 10:13:16;;;;;;;28.80;17.08;;;16.20;99.90;;;;;;5045676;28;20080;-68
2023/04/28 10:15:42;;;;;;;26.88;15.43;;;16.30;99.90;;;;;;5047884;28;20040;-67
2023/04/28 10:18:10;;;;;;;30.08;17.17;;;16.40;99.90;;;;;;5048156;28;20032;-67
2023/04/28 10:20:36;;;;;;;29.00;16.65;;;16.50;99.90;;;;;;5046315;28;20105;-67
2023/04/28 10:23:17;;;;;;;26.85;15.95;;;16.60;99.90;;;;;;5048545;28;20029;-67
2023/04/28 10:25:48;;;;;;;31.20;16.97;;;16.80;99.90;;;;;;5046173;28;20053;-67
2023/04/28 10:28:14;;;;;;;26.55;16.60;;;17.00;99.90;;;;;;5045931;28;20040;-67
2023/04/28 10:30:40;;;;;;;25.73;16.80;;;17.00;99.90;;;;;;5048230;28;20429;-67
2023/04/28 10:33:14;;;;;;;27.40;16.10;;;16.90;99.90;;;;;;5049365;28;20036;-67
2023/04/28 10:35:43;;;;;;;28.35;16.35;;;16.70;99.90;;;;;;5040153;28;20041;-67
2023/04/28 10:38:11;;;;;;;27.77;16.17;;;16.70;99.90;;;;;;5044372;28;20044;-67
2023/04/28 10:40:41;;;;;;;28.42;15.52;;;16.60;99.90;;;;;;5044603;28;20037;-69
2023/04/28 10:43:11;;;;;;;20.25;13.82;;;16.60;99.90;;;;;;5041690;28;20195;-71
2023/04/28 10:46:07;;;;;;;25.15;15.20;;;16.70;99.90;;;;;;5042425;28;20075;-72
2023/04/28 10:48:32;;;;;;;22.90;14.05;;;16.70;99.90;;;;;;5039101;28;20123;-70
2023/04/28 10:51:08;;;;;;;23.02;14.73;;;16.60;99.90;;;;;;5062993;28;20091;-71
2023/04/28 10:53:43;;;;;;;25.38;15.48;;;16.60;99.90;;;;;;5047362;28;20401;-71
2023/04/28 10:56:20;;;;;;;24.33;15.60;;;16.60;99.90;;;;;;5062936;28;20045;-71
2023/04/28 10:58:50;;;;;;;23.08;14.57;;;16.60;99.90;;;;;;5047374;28;20058;-69
2023/04/28 11:01:29;;;;;;;27.90;14.68;;;16.50;99.90;;;;;;5061889;28;20041;-70
2023/04/28 11:03:59;;;;;;;31.40;15.95;;;16.50;99.90;;;;;;5047563;28;20033;-70
2023/04/28 11:06:46;;;;;;;31.35;16.92;;;16.40;99.90;;;;;;5044755;28;20110;-70
2023/04/28 11:09:14;;;;;;;35.53;17.27;;;16.40;99.90;;;;;;5043951;28;20044;-68
2023/04/28 11:12:00;;;;;;;26.67;17.60;;;16.30;99.90;;;;;;5045215;28;20060;-68
2023/04/28 11:14:32;;;;;;;30.40;16.90;;;16.20;99.90;;;;;;5045408;28;20044;-67
2023/04/28 11:17:05;;;;;;;29.02;16.92;;;16.20;99.90;;;;;;5044048;28;20037;-66
2023/04/28 11:19:37;;;;;;;28.42;17.77;;;16.00;99.90;;;;;;5046751;28;20392;-65
2023/04/28 11:22:10;;;;;;;30.90;16.98;;;15.90;99.90;;;;;;5045065;28;20334;-66
2023/04/28 11:24:36;;;;;;;29.13;17.38;;;15.70;99.90;;;;;;5064221;28;20048;-67
2023/04/28 11:27:02;;;;;;;32.95;18.67;;;15.50;99.90;;;;;;5047638;28;20033;-67
2023/04/28 11:29:35;;;;;;;38.40;18.80;;;15.40;99.90;;;;;;5046465;28;20392;-66
2023/04/28 11:32:05;;;;;;;36.15;19.35;;;15.20;99.90;;;;;;5048808;28;20040;-65
2023/04/28 11:34:31;;;;;;;31.10;19.13;;;15.10;99.90;;;;;;5048540;28;20075;-65
2023/04/28 11:37:05;;;;;;;36.40;18.88;;;15.00;99.90;;;;;;5070037;28;20045;-66
2023/04/28 11:39:33;;;;;;;38.35;19.40;;;15.00;99.90;;;;;;5042580;28;20068;-66
2023/04/28 11:42:09;;;;;;;38.85;23.15;;;15.00;99.90;;;;;;5052787;28;20094;-66
2023/04/28 11:44:41;;;;;;;37.63;21.08;;;15.10;99.90;;;;;;5052345;28;20083;-67
2023/04/28 11:47:06;;;;;;;47.15;24.05;;;15.10;99.90;;;;;;5068448;28;20041;-66
2023/04/28 11:49:43;;;;;;;41.45;24.40;;;15.10;99.90;;;;;;5066539;28;20040;-68
2023/04/28 11:52:09;;;;;;;43.97;24.13;;;15.20;99.90;;;;;;5048294;28;20052;-68
2023/04/28 11:54:42;;;;;;;49.13;25.67;;;15.20;99.90;;;;;;5061400;28;20062;-68
2023/04/28 11:57:16;;;;;;;49.30;26.17;;;15.30;99.90;;;;;;5051543;28;20464;-68
2023/04/28 11:59:42;;;;;;;51.40;26.00;;;15.30;99.90;;;;;;5057456;28;20067;-69
2023/04/28 12:02:07;;;;;;;49.38;26.67;;;15.30;99.90;;;;;;5057735;28;20484;-68
2023/04/28 12:04:42;;;;;;;51.05;27.55;;;15.20;99.90;;;;;;5060034;28;20055;-69
2023/04/28 12:07:13;;;;;;;51.10;28.40;;;15.10;99.90;;;;;;5068822;28;20456;-68
2023/04/28 12:09:41;;;;;;;53.80;29.90;;;15.10;99.90;;;;;;5056263;28;20450;-69
2023/04/28 12:12:35;;;;;;;57.08;31.92;;;15.00;99.90;;;;;;5057863;28;20056;-68
2023/04/28 12:15:04;;;;;;;56.10;31.73;;;15.00;99.90;;;;;;5060842;28;20049;-70
2023/04/28 12:17:31;;;;;;;62.20;34.22;;;14.90;99.90;;;;;;5049236;28;20048;-70
2023/04/28 12:19:59;;;;;;;67.60;36.17;;;14.80;99.90;;;;;;5052650;28;20507;-71
2023/04/28 12:22:26;;;;;;;72.75;39.67;;;14.70;99.90;;;;;;5055215;28;20036;-70
2023/04/28 12:25:12;;;;;;;67.97;38.17;;;14.60;99.90;;;;;;5049470;28;20458;-71
2023/04/28 12:27:39;;;;;;;84.18;42.30;;;14.40;99.90;;;;;;5049297;28;20040;-71
2023/04/28 12:30:37;;;;;;;84.65;44.70;;;14.30;99.90;;;;;;5046377;28;20040;-71
2023/04/28 12:33:03;;;;;;;92.57;46.97;;;14.30;99.90;;;;;;5038513;28;20128;-71